Terminal Aerodrome Forecast
Issued by NWS

Home | Current Version | Previous Version | Text Only | Print | Product List | Glossary On
Versions: 1 2 3 4 5 6 7 8 9 10 11 12 13 14 15 16 17 18
538
FTUS41 KPBZ 091135 CCA
TAFHLG
TAF COR
KHLG 091135Z 0912/1012 26012G22KT P6SM -SHSN SCT015 OVC025
      TEMPO 0912/0916 BKN015
     FM092300 26008KT P6SM BKN025=

USA.gov is the U.S. government's official web portal to all federal, state and local government web resources and services.